KLGA/LGA METAR and TAF weather

Enter ICAO airport designator
Station Type Date Time Source
KLGA METAR 2022/11/30 17:51 UTC NOAA

KLGA 301751Z 17023G34KT 2 1/2SM -RA FEW014 BKN018 OVC033 14/11 A2975 RMK AO2 PK WND 15035/1711 SFC VIS 3 SLP074 P0007 60016 T01440111 10144 20067 56085


Station Type Date Time Source
KLGA Decoded METAR 2022/11/30 17:51 UTC NOAA

NEW YORK LA GUARDIA AIRPORT , NY, United States (KLGA) 40-47N 73-53W 11M
Nov 30, 2022 - 12:51 PM EST / 2022.11.30 1751 UTC
Wind: from the S (170 degrees) at 26 MPH (23 KT) gusting to 39 MPH (34 KT):0
Visibility: 2 1/2 mile(s):0
Sky conditions: overcast
Weather: light rain
Precipitation last hour: 0.07 inches
Temperature: 57.9 F (14.4 C)
Dew Point: 52.0 F (11.1 C)
Relative Humidity: 80%
Pressure (altimeter): 29.75 in. Hg (1007 hPa)
Pressure tendency: 0.25 inches (8.5 hPa) lower than three hours ago
ob: KLGA 301751Z 17023G34KT 2 1/2SM -RA FEW014 BKN018 OVC033 14/11 A2975 RMK AO2 PK WND 15035/1711 SFC VIS 3 SLP074 P0007 60016 T01440111 10144 20067 56085
cycle: 18

Station Type Date Time Source
KLGA TAF 2022/11/30 18:30 UTC NOAA

TAF KLGA 301728Z 3018/0124 17018G31KT 5SM -RA BR SCT008 BKN020 WS020/19050KT
TEMPO 3018/3020 2SM RA BR BKN008
FM302000 20021G39KT 3SM RA BR OVC008 WS020/21050KT
FM302300 28020G39KT 6SM -SHRA BKN025 BKN050
FM010100 29019G28KT P6SM SKC
FM010400 28015G27KT P6SM FEW040
FM012200 28010KT P6SM FEW040

Example: see airport list